createdAt,value
2022-10-22T04:35:32.432Z,5.97
2022-10-22T04:40:35.288Z,6.17
2022-10-22T04:45:38.057Z,6.47
2022-10-22T04:50:40.766Z,6.03
2022-10-22T04:55:43.495Z,6.20
2022-10-22T05:00:46.444Z,6.47
2022-10-22T05:05:49.120Z,6.63
2022-10-22T05:10:51.765Z,6.13
2022-10-22T05:15:54.531Z,6.50
2022-10-22T05:20:57.312Z,5.83
2022-10-22T05:26:03.482Z,6.87
2022-10-22T05:31:07.425Z,6.40
2022-10-22T05:36:13.409Z,6.87
2022-10-22T05:41:21.619Z,6.23
2022-10-22T05:46:26.002Z,6.63
2022-10-22T05:51:31.318Z,6.63
2022-10-22T05:56:34.741Z,6.20
2022-10-22T06:01:38.694Z,6.20
2022-10-22T06:06:44.688Z,5.63
2022-10-22T06:11:51.409Z,7.00
2022-10-22T06:16:54.176Z,6.67
2022-10-22T06:21:56.817Z,6.60
2022-10-22T06:26:59.484Z,6.53
2022-10-22T06:32:02.168Z,6.40
2022-10-22T06:37:04.881Z,6.57
2022-10-22T06:42:07.684Z,6.57
2022-10-22T06:47:10.347Z,6.80
2022-10-22T06:52:13.521Z,5.80
2022-10-22T06:57:16.201Z,6.80
2022-10-22T07:02:18.885Z,6.53
2022-10-22T07:07:21.557Z,6.70
2022-10-22T07:12:24.255Z,6.40
2022-10-22T07:17:26.976Z,6.83
2022-10-22T07:22:29.669Z,7.07
2022-10-22T07:27:32.467Z,6.37
2022-10-22T07:32:37.107Z,7.30
2022-10-22T07:37:40.004Z,6.73
2022-10-22T07:42:42.892Z,6.87
2022-10-22T07:47:47.040Z,6.60
2022-10-22T07:52:49.799Z,6.90
2022-10-22T07:57:52.745Z,6.63
2022-10-22T08:02:55.418Z,6.80
2022-10-22T08:07:58.113Z,6.90
2022-10-22T08:13:00.816Z,6.97
2022-10-22T08:18:03.710Z,7.07
2022-10-22T08:23:06.505Z,7.37
2022-10-22T08:28:09.340Z,7.53
2022-10-22T08:33:12.242Z,7.73
2022-10-22T08:38:15.744Z,6.47
2022-10-22T08:43:30.522Z,7.47
2022-10-22T08:48:43.792Z,7.10
2022-10-22T08:54:10.731Z,7.13
2022-10-22T08:59:26.039Z,7.07
2022-10-22T09:04:36.843Z,6.83
2022-10-22T09:09:47.806Z,6.60
2022-10-22T09:14:50.760Z,8.00
2022-10-22T09:20:12.026Z,8.10
2022-10-22T09:25:20.696Z,8.43
2022-10-22T09:30:40.058Z,8.07
2022-10-22T09:35:56.562Z,7.63
2022-10-22T09:41:00.946Z,7.93
2022-10-22T09:46:09.220Z,7.73
2022-10-22T09:51:18.610Z,7.83
2022-10-22T09:56:36.323Z,7.80
2022-10-22T10:01:40.885Z,8.17
2022-10-22T10:06:44.752Z,7.73
2022-10-22T10:12:01.009Z,7.70
2022-10-22T10:17:16.827Z,8.50
2022-10-22T10:22:34.604Z,8.40
2022-10-22T10:27:58.556Z,8.67
2022-10-22T10:33:10.243Z,8.40
2022-10-22T10:38:29.623Z,7.87
2022-10-22T10:43:44.645Z,8.73
2022-10-22T10:48:56.836Z,8.40
2022-10-22T10:54:05.101Z,9.00
2022-10-22T10:59:31.947Z,9.80
2022-10-22T11:05:01.778Z,9.20
2022-10-22T11:10:13.887Z,9.70
2022-10-22T11:15:37.629Z,10.47
2022-10-22T11:21:11.688Z,8.43
2022-10-22T11:26:45.315Z,9.27
2022-10-22T11:31:52.589Z,9.67
2022-10-22T11:36:56.255Z,9.13
2022-10-22T11:42:00.159Z,9.57
2022-10-22T11:47:24.163Z,10.97
2022-10-22T11:52:33.015Z,10.53
2022-10-22T11:57:39.978Z,9.73
2022-10-22T12:02:45.325Z,9.27
2022-10-22T12:08:01.911Z,8.93
2022-10-22T12:13:52.794Z,9.27
2022-10-22T12:19:11.527Z,9.90
2022-10-22T12:24:16.257Z,9.27
2022-10-22T12:29:23.750Z,9.73
2022-10-22T12:34:26.545Z,9.00
2022-10-22T12:39:30.030Z,10.43
2022-10-22T12:44:33.616Z,8.80
2022-10-22T12:49:39.721Z,9.57
2022-10-22T12:54:42.721Z,9.20
2022-10-22T12:59:49.863Z,10.00
2022-10-22T13:05:21.857Z,10.00
2022-10-22T13:10:27.721Z,8.93
2022-10-22T13:15:36.438Z,9.97
2022-10-22T13:21:02.583Z,10.07
2022-10-22T13:26:16.583Z,10.03
2022-10-22T13:31:21.684Z,9.90
2022-10-22T13:36:24.876Z,9.57
2022-10-22T13:41:33.242Z,10.47
2022-10-22T13:46:42.467Z,9.93
2022-10-22T13:51:46.012Z,10.30
2022-10-22T13:56:48.929Z,8.77
2022-10-22T14:01:52.004Z,8.70
2022-10-22T14:06:56.737Z,9.23
2022-10-22T14:12:01.500Z,9.43
2022-10-22T14:17:04.653Z,9.27
2022-10-22T14:22:13.098Z,10.83
2022-10-22T14:27:16.422Z,10.43
2022-10-22T14:32:20.763Z,11.37
2022-10-22T14:37:24.892Z,11.30
2022-10-22T14:42:28.604Z,11.37
2022-10-22T14:47:31.821Z,11.10
2022-10-22T14:52:35.008Z,12.37
2022-10-22T14:57:39.679Z,12.40
2022-10-22T15:02:43.821Z,12.17
2022-10-22T15:07:46.784Z,14.03
2022-10-22T15:12:49.842Z,13.10
2022-10-22T15:17:52.758Z,12.73
2022-10-22T15:22:56.107Z,13.83
2022-10-22T15:28:04.618Z,13.57
2022-10-22T15:33:11.916Z,14.93
2022-10-22T15:38:14.676Z,13.80
2022-10-22T15:43:17.366Z,14.43
2022-10-22T15:48:20.155Z,14.93
2022-10-22T15:53:22.942Z,19.03
2022-10-22T15:58:25.802Z,16.70
2022-10-22T16:03:28.654Z,17.10
2022-10-22T16:08:31.889Z,17.57
2022-10-22T16:13:37.331Z,17.87
2022-10-22T16:18:40.101Z,17.17
2022-10-22T16:23:43.452Z,17.00
2022-10-22T16:28:47.494Z,16.70
2022-10-22T16:33:50.531Z,17.20
2022-10-22T16:38:53.401Z,16.40
2022-10-22T16:43:56.228Z,16.43
2022-10-22T16:48:59.313Z,16.73
2022-10-22T16:54:03.705Z,18.03
2022-10-22T16:59:08.481Z,17.60
2022-10-22T17:04:11.368Z,18.17
2022-10-22T17:09:15.072Z,17.37
2022-10-22T17:14:17.914Z,18.67
2022-10-22T17:19:21.508Z,17.37
2022-10-22T17:24:24.265Z,18.67
2022-10-22T17:29:26.992Z,18.53
2022-10-22T17:34:33.147Z,17.77
2022-10-22T17:39:35.878Z,19.60
2022-10-22T17:44:38.762Z,20.53
2022-10-22T17:49:41.724Z,21.37
2022-10-22T17:54:44.611Z,20.50
2022-10-22T17:59:47.320Z,20.93
2022-10-22T18:04:53.125Z,19.77
2022-10-22T18:09:55.842Z,20.13
2022-10-22T18:14:58.550Z,19.80
2022-10-22T18:20:01.270Z,19.27
2022-10-22T18:25:04.152Z,21.47
2022-10-22T18:30:07.509Z,20.27
2022-10-22T18:35:10.260Z,20.40
2022-10-22T18:40:14.701Z,19.63
2022-10-22T18:45:17.732Z,21.20
2022-10-22T18:50:20.514Z,21.27
2022-10-22T18:55:23.221Z,22.70
2022-10-22T19:00:26.690Z,21.63
2022-10-22T19:05:29.438Z,22.23
2022-10-22T19:10:33.271Z,20.40
2022-10-22T19:15:36.024Z,20.07
2022-10-22T19:20:39.621Z,20.90
2022-10-22T19:25:42.765Z,21.33
2022-10-22T19:30:45.441Z,19.97
2022-10-22T19:35:48.183Z,20.77
2022-10-22T19:40:51.420Z,19.30
2022-10-22T19:45:54.192Z,18.80
2022-10-22T19:51:05.589Z,19.33
2022-10-22T19:56:10.063Z,19.10
2022-10-22T20:01:14.730Z,17.63
2022-10-22T20:06:18.628Z,18.60
2022-10-22T20:11:29.561Z,20.43
2022-10-22T20:16:32.307Z,18.57
2022-10-22T20:21:35.575Z,19.50
2022-10-22T20:26:38.593Z,18.17
2022-10-22T20:31:41.324Z,18.17
2022-10-22T20:36:44.124Z,18.63
2022-10-22T20:41:46.904Z,19.07
2022-10-22T20:46:53.856Z,24.13
2022-10-22T20:51:56.688Z,28.17
2022-10-22T20:57:00.474Z,20.67
2022-10-22T21:02:03.712Z,18.73
2022-10-22T21:07:06.788Z,18.30
2022-10-22T21:12:09.444Z,18.80
2022-10-22T21:17:12.134Z,20.30
2022-10-22T21:22:14.834Z,19.60
2022-10-22T21:27:17.581Z,19.77
2022-10-22T21:32:20.316Z,19.73
2022-10-22T21:37:23.291Z,19.23
2022-10-22T21:42:26.031Z,18.40
2022-10-22T21:47:28.776Z,18.50
2022-10-22T21:52:31.443Z,18.73
2022-10-22T21:57:34.165Z,20.03
2022-10-22T22:02:36.857Z,21.17
2022-10-22T22:07:40.188Z,19.20
2022-10-22T22:12:43.251Z,20.03
2022-10-22T22:17:46.290Z,20.20
2022-10-22T22:22:48.989Z,19.17
2022-10-22T22:27:51.763Z,20.20
2022-10-22T22:32:54.464Z,19.60
2022-10-22T22:37:57.178Z,17.87
2022-10-22T22:42:59.815Z,17.53
2022-10-22T22:48:03.228Z,17.73
2022-10-22T22:53:06.149Z,20.00
2022-10-22T22:58:08.821Z,16.60
2022-10-22T23:03:11.479Z,17.73
2022-10-22T23:08:14.151Z,17.83
2022-10-22T23:13:17.117Z,17.43
2022-10-22T23:18:19.818Z,16.93
2022-10-22T23:23:22.511Z,18.10
2022-10-22T23:28:25.372Z,19.50
